createdAt,value
2023-01-17T00:02:12.085Z,1.50
2023-01-17T00:04:58.568Z,1.35
2023-01-17T00:07:45.042Z,1.20
2023-01-17T00:10:15.818Z,1.52
2023-01-17T00:12:55.768Z,1.30
2023-01-17T00:15:24.721Z,1.33
2023-01-17T00:17:53.535Z,1.60
2023-01-17T00:20:48.532Z,1.20
2023-01-17T00:23:42.681Z,1.10
2023-01-17T00:26:15.008Z,1.55
2023-01-17T00:28:43.872Z,1.20
2023-01-17T00:31:13.577Z,1.13
2023-01-17T00:33:41.205Z,1.58
2023-01-17T00:36:09.935Z,1.30
2023-01-17T00:38:38.980Z,1.67
2023-01-17T00:41:09.377Z,1.40
2023-01-17T00:43:56.069Z,1.40
2023-01-17T00:46:41.781Z,1.40
2023-01-17T00:49:27.632Z,1.40
2023-01-17T00:52:13.904Z,1.90
2023-01-17T00:54:59.680Z,1.85
2023-01-17T00:57:45.477Z,1.50
2023-01-17T01:00:31.767Z,1.25
2023-01-17T01:03:17.788Z,1.38
2023-01-17T01:06:03.823Z,1.42
2023-01-17T01:08:49.763Z,1.73
2023-01-17T01:11:39.208Z,1.40
2023-01-17T01:14:28.391Z,2.10
2023-01-17T01:17:14.324Z,3.20
2023-01-17T01:20:00.125Z,2.25
2023-01-17T01:22:46.081Z,3.40
2023-01-17T01:25:31.890Z,4.50
2023-01-17T01:28:32.921Z,3.75
2023-01-17T01:31:20.333Z,3.95
2023-01-17T01:33:48.279Z,3.47
2023-01-17T01:36:16.232Z,2.75
2023-01-17T01:38:45.020Z,2.83
2023-01-17T01:41:12.685Z,3.13
2023-01-17T01:43:46.358Z,2.90
2023-01-17T01:48:51.077Z,2.40
2023-01-17T01:51:33.471Z,1.98
2023-01-17T01:54:22.453Z,3.08
2023-01-17T01:56:52.997Z,2.83
2023-01-17T01:59:22.989Z,2.55
2023-01-17T02:01:53.456Z,1.95
2023-01-17T02:04:23.041Z,2.30
2023-01-17T02:06:56.619Z,1.50
2023-01-17T02:09:24.739Z,2.17
2023-01-17T02:11:52.396Z,1.75
2023-01-17T02:14:23.242Z,2.40
2023-01-17T02:17:16.041Z,1.90
2023-01-17T02:19:52.728Z,2.17
2023-01-17T02:22:51.131Z,2.25
2023-01-17T02:25:52.408Z,3.25
2023-01-17T02:28:48.391Z,3.53
2023-01-17T02:31:21.272Z,3.22
2023-01-17T02:33:54.827Z,2.92
2023-01-17T02:36:32.370Z,3.10
2023-01-17T02:39:23.223Z,3.42
2023-01-17T02:42:14.743Z,3.10
2023-01-17T02:44:44.211Z,3.38
2023-01-17T02:47:29.758Z,3.70
2023-01-17T02:50:14.200Z,3.53
2023-01-17T02:52:41.629Z,4.30
2023-01-17T02:55:11.992Z,3.85
2023-01-17T02:58:05.819Z,3.85
2023-01-17T03:00:46.282Z,3.25
2023-01-17T03:03:50.952Z,2.97
2023-01-17T03:06:31.531Z,3.38
2023-01-17T03:08:59.103Z,3.58
2023-01-17T03:11:27.712Z,3.22
2023-01-17T03:13:57.192Z,3.53
2023-01-17T03:16:28.008Z,4.03
2023-01-17T03:18:55.592Z,3.92
2023-01-17T03:21:24.570Z,4.45
2023-01-17T03:23:52.526Z,4.60
2023-01-17T03:26:20.003Z,4.70
2023-01-17T03:28:47.612Z,4.85
2023-01-17T03:31:20.171Z,4.70
2023-01-17T03:33:47.692Z,5.43
2023-01-17T03:36:15.411Z,5.30
2023-01-17T03:38:42.861Z,4.22
2023-01-17T03:41:10.377Z,4.15
2023-01-17T03:43:37.872Z,4.50
2023-01-17T03:46:07.534Z,4.10
2023-01-17T03:48:35.068Z,4.80
2023-01-17T03:51:02.682Z,4.15
2023-01-17T03:53:30.176Z,4.55
2023-01-17T03:55:57.660Z,4.93
2023-01-17T03:58:25.090Z,5.13
2023-01-17T04:00:52.553Z,5.03
2023-01-17T04:03:20.061Z,4.80
2023-01-17T04:05:47.509Z,4.25
2023-01-17T04:08:14.923Z,4.70
2023-01-17T04:10:42.488Z,4.75
2023-01-17T04:13:09.950Z,4.93
2023-01-17T04:15:37.522Z,3.97
2023-01-17T04:18:05.907Z,4.50
2023-01-17T04:20:34.732Z,4.20
2023-01-17T04:23:02.902Z,4.80
2023-01-17T04:25:31.123Z,6.00
2023-01-17T04:28:00.435Z,5.90
2023-01-17T04:30:29.110Z,5.90
2023-01-17T04:32:57.142Z,6.10
2023-01-17T04:35:25.193Z,5.68
2023-01-17T04:37:53.235Z,6.20
2023-01-17T04:40:20.708Z,5.68
2023-01-17T04:42:48.688Z,6.22
2023-01-17T04:45:16.302Z,5.57
2023-01-17T04:47:43.831Z,6.75
2023-01-17T04:50:12.055Z,5.68
2023-01-17T04:52:39.670Z,4.90
2023-01-17T04:55:08.103Z,5.60
2023-01-17T04:57:35.513Z,5.88
2023-01-17T05:00:03.333Z,5.75
2023-01-17T05:02:32.009Z,5.57
2023-01-17T05:04:59.590Z,5.97
2023-01-17T05:07:27.085Z,6.57
2023-01-17T05:09:54.547Z,7.28
2023-01-17T05:12:24.825Z,8.25
2023-01-17T05:14:52.238Z,7.68
2023-01-17T05:17:20.131Z,8.85
2023-01-17T05:19:47.742Z,9.90
2023-01-17T05:22:15.627Z,8.40
2023-01-17T05:24:47.777Z,7.35
2023-01-17T05:27:16.164Z,8.73
2023-01-17T05:29:43.810Z,8.35
2023-01-17T05:32:11.347Z,9.65
2023-01-17T05:34:38.862Z,8.63
2023-01-17T05:37:06.394Z,8.18
2023-01-17T05:39:33.862Z,8.35
2023-01-17T05:42:01.602Z,7.82
2023-01-17T05:44:29.079Z,7.93
2023-01-17T05:46:56.957Z,7.28
2023-01-17T05:49:24.442Z,6.10
2023-01-17T05:51:54.683Z,6.25
2023-01-17T05:54:22.357Z,5.93
2023-01-17T05:56:49.840Z,5.90
2023-01-17T05:59:28.542Z,6.05
2023-01-17T06:02:03.640Z,5.63
2023-01-17T06:04:31.259Z,5.45
2023-01-17T06:06:58.871Z,5.05
2023-01-17T06:09:26.517Z,5.18
2023-01-17T06:11:54.159Z,6.28
2023-01-17T06:14:21.634Z,5.72
2023-01-17T06:16:49.282Z,5.43
2023-01-17T06:19:16.704Z,4.72
2023-01-17T06:21:44.120Z,4.75
2023-01-17T06:24:11.592Z,5.00
2023-01-17T06:26:39.369Z,5.07
2023-01-17T06:29:07.039Z,5.18
2023-01-17T06:31:34.675Z,5.10
2023-01-17T06:34:03.675Z,5.05
2023-01-17T06:36:33.267Z,5.43
2023-01-17T06:39:00.740Z,5.00
2023-01-17T06:41:28.319Z,4.93
2023-01-17T06:43:56.667Z,4.90
2023-01-17T06:46:24.274Z,5.18
2023-01-17T06:48:52.100Z,5.68
2023-01-17T06:51:20.001Z,5.30
2023-01-17T06:53:50.716Z,6.43
2023-01-17T06:56:18.262Z,6.80
2023-01-17T06:58:50.592Z,5.75
2023-01-17T07:01:19.279Z,5.22
2023-01-17T07:03:46.873Z,5.45
2023-01-17T07:06:14.428Z,4.90
2023-01-17T07:08:42.075Z,4.30
2023-01-17T07:11:10.018Z,4.07
2023-01-17T07:13:38.899Z,4.13
2023-01-17T07:16:07.674Z,3.78
2023-01-17T07:18:35.578Z,3.33
2023-01-17T07:21:03.085Z,3.45
2023-01-17T07:23:30.656Z,3.50
2023-01-17T07:26:00.476Z,3.00
2023-01-17T07:28:28.850Z,3.15
2023-01-17T07:30:56.835Z,3.20
2023-01-17T07:33:24.334Z,2.75
2023-01-17T07:35:52.036Z,2.80
2023-01-17T07:38:20.469Z,3.10
2023-01-17T07:40:47.998Z,3.53
2023-01-17T07:43:15.421Z,3.47
2023-01-17T07:45:44.534Z,3.58
2023-01-17T07:48:12.930Z,2.97
2023-01-17T07:50:40.535Z,3.45
2023-01-17T07:53:08.079Z,3.58
2023-01-17T07:55:35.708Z,4.20
2023-01-17T07:58:10.691Z,4.00
2023-01-17T08:00:38.284Z,3.85
2023-01-17T08:03:06.558Z,4.18
2023-01-17T08:05:33.934Z,3.92
2023-01-17T08:08:01.460Z,4.30
2023-01-17T08:10:29.013Z,4.28
2023-01-17T08:12:56.641Z,4.10
2023-01-17T08:15:26.892Z,4.47
2023-01-17T08:17:54.445Z,4.00
2023-01-17T08:20:22.018Z,3.72
2023-01-17T08:22:49.599Z,4.10
2023-01-17T08:25:17.180Z,4.47
2023-01-17T08:27:44.755Z,4.47
2023-01-17T08:30:12.677Z,5.25
2023-01-17T08:32:41.217Z,4.93
2023-01-17T08:35:09.568Z,4.20
2023-01-17T08:37:38.240Z,4.47
2023-01-17T08:40:06.731Z,5.00
2023-01-17T08:42:39.515Z,4.40
2023-01-17T08:45:08.914Z,4.47
2023-01-17T08:47:36.470Z,4.25
2023-01-17T08:50:07.480Z,4.95
2023-01-17T08:52:36.393Z,5.40
2023-01-17T08:55:06.225Z,3.85
2023-01-17T08:57:33.951Z,3.58
2023-01-17T09:00:01.410Z,3.75
2023-01-17T09:02:32.188Z,3.60
2023-01-17T09:05:00.999Z,3.70
2023-01-17T09:07:30.781Z,3.13
2023-01-17T09:09:58.263Z,3.72
2023-01-17T09:12:25.934Z,3.25
2023-01-17T09:14:53.465Z,3.50
2023-01-17T09:17:21.222Z,3.38
2023-01-17T09:19:49.000Z,3.13
2023-01-17T09:22:16.445Z,4.40
2023-01-17T09:24:44.009Z,4.90
2023-01-17T09:27:11.470Z,3.78
2023-01-17T09:29:38.978Z,3.30
2023-01-17T09:32:06.469Z,3.67
2023-01-17T09:34:33.945Z,3.85
2023-01-17T09:37:01.409Z,3.78
2023-01-17T09:39:28.920Z,3.72
2023-01-17T09:42:20.019Z,4.45
2023-01-17T09:44:53.704Z,3.70
2023-01-17T09:47:36.875Z,4.45
2023-01-17T09:50:18.594Z,4.32
2023-01-17T09:52:46.381Z,3.75
2023-01-17T09:55:16.089Z,4.00
2023-01-17T09:57:56.953Z,3.50
2023-01-17T10:00:42.152Z,3.10
2023-01-17T10:03:46.724Z,3.17
2023-01-17T10:06:23.187Z,3.28
2023-01-17T10:08:53.433Z,3.75
2023-01-17T10:11:45.878Z,4.20
2023-01-17T10:14:25.456Z,3.80
2023-01-17T10:17:22.001Z,3.50
2023-01-17T10:20:24.753Z,3.05
2023-01-17T10:22:58.062Z,3.42
2023-01-17T10:25:55.365Z,3.72
2023-01-17T10:28:39.622Z,3.85
2023-01-17T10:31:28.842Z,4.43
2023-01-17T10:34:04.130Z,4.65
2023-01-17T10:36:38.477Z,4.50
2023-01-17T10:39:19.658Z,3.92
2023-01-17T10:41:56.020Z,5.55
2023-01-17T10:44:39.252Z,4.82
2023-01-17T10:47:12.596Z,5.10
2023-01-17T10:49:45.748Z,6.38
2023-01-17T10:52:25.155Z,6.70
2023-01-17T10:55:34.490Z,9.10
2023-01-17T10:58:03.846Z,6.63
2023-01-17T11:00:44.227Z,6.82
2023-01-17T11:03:18.488Z,7.30
2023-01-17T11:05:45.996Z,6.43
2023-01-17T11:08:15.114Z,5.57
2023-01-17T11:10:50.233Z,5.50
2023-01-17T11:13:34.620Z,5.40
2023-01-17T11:16:07.042Z,4.63
2023-01-17T11:18:41.097Z,4.72
2023-01-17T11:23:52.237Z,10.98
2023-01-17T11:26:34.779Z,11.27
2023-01-17T11:29:31.866Z,12.03
2023-01-17T11:32:32.607Z,7.20
2023-01-17T11:35:18.716Z,16.77
2023-01-17T11:37:58.782Z,16.25
2023-01-17T11:40:36.448Z,20.40
2023-01-17T11:43:06.703Z,7.38
2023-01-17T11:45:34.940Z,5.57
2023-01-17T11:48:13.568Z,5.50
2023-01-17T11:51:00.536Z,5.07
2023-01-17T11:53:35.241Z,5.78
2023-01-17T11:56:07.485Z,11.20
2023-01-17T11:58:38.371Z,12.75
2023-01-17T12:01:28.693Z,15.00
2023-01-17T12:04:28.368Z,8.88
2023-01-17T12:07:17.083Z,6.10
2023-01-17T12:10:02.869Z,5.25
2023-01-17T12:13:26.951Z,4.93
2023-01-17T12:16:31.928Z,3.33
2023-01-17T12:19:17.643Z,2.58
2023-01-17T12:22:00.610Z,3.72
2023-01-17T12:24:48.303Z,5.72
2023-01-17T12:27:23.217Z,4.97
2023-01-17T12:29:59.070Z,4.82
2023-01-17T12:32:42.099Z,4.97
2023-01-17T12:35:20.615Z,5.10
2023-01-17T12:38:04.415Z,5.65
2023-01-17T12:40:51.035Z,6.28
2023-01-17T12:43:29.541Z,6.90
2023-01-17T12:45:58.520Z,5.85
2023-01-17T12:48:36.219Z,5.88
2023-01-17T12:51:07.034Z,7.20
2023-01-17T12:53:59.936Z,7.43
2023-01-17T12:56:35.527Z,7.40
2023-01-17T12:59:40.324Z,7.57
2023-01-17T13:02:36.963Z,8.55
2023-01-17T13:05:15.536Z,6.78
2023-01-17T13:07:51.646Z,6.47
2023-01-17T13:10:36.004Z,5.65
2023-01-17T13:13:24.667Z,5.30
2023-01-17T13:16:05.532Z,5.20
2023-01-17T13:18:33.761Z,6.60
2023-01-17T13:21:31.859Z,4.38
2023-01-17T13:24:08.351Z,2.67
2023-01-17T13:26:50.897Z,3.65
2023-01-17T13:29:43.355Z,3.43
2023-01-17T13:32:29.285Z,4.20
2023-01-17T13:35:00.969Z,4.80
2023-01-17T13:37:58.239Z,5.32
2023-01-17T13:40:50.029Z,4.60
2023-01-17T13:43:27.001Z,4.00
2023-01-17T13:45:59.032Z,4.03
2023-01-17T13:48:32.073Z,3.40
2023-01-17T13:51:00.947Z,4.10
2023-01-17T13:53:34.446Z,3.30
2023-01-17T13:56:12.781Z,4.55
2023-01-17T13:58:50.648Z,3.05
2023-01-17T14:01:24.595Z,2.33
2023-01-17T14:03:53.035Z,4.35
2023-01-17T14:06:45.186Z,2.08
2023-01-17T14:09:30.515Z,3.63
2023-01-17T14:12:06.188Z,4.35
2023-01-17T14:14:43.145Z,4.10
2023-01-17T14:17:16.794Z,4.03
2023-01-17T14:19:49.536Z,3.67
2023-01-17T14:22:25.925Z,3.67
2023-01-17T14:25:06.056Z,2.75
2023-01-17T14:27:35.172Z,2.90
2023-01-17T14:30:07.719Z,2.90
2023-01-17T14:32:37.687Z,3.92
2023-01-17T14:35:06.551Z,3.22
2023-01-17T14:37:43.215Z,5.13
2023-01-17T14:40:16.770Z,3.70
2023-01-17T14:42:46.016Z,3.97
2023-01-17T14:45:18.816Z,3.70
2023-01-17T14:47:46.632Z,3.53
2023-01-17T14:50:30.749Z,4.18
2023-01-17T14:53:13.680Z,2.42
2023-01-17T14:55:53.369Z,3.40
2023-01-17T14:58:36.735Z,3.05
2023-01-17T15:01:11.820Z,3.53
2023-01-17T15:03:51.907Z,4.57
2023-01-17T15:06:38.859Z,5.18
2023-01-17T15:09:17.759Z,3.83
2023-01-17T15:11:47.338Z,3.72
2023-01-17T15:14:30.632Z,3.95
2023-01-17T15:17:08.720Z,3.45
2023-01-17T15:19:48.730Z,4.68
2023-01-17T15:22:19.120Z,4.03
2023-01-17T15:24:48.397Z,4.40
2023-01-17T15:27:17.299Z,4.10
2023-01-17T15:29:46.937Z,4.05
2023-01-17T15:32:34.079Z,3.70
2023-01-17T15:35:03.169Z,3.70
2023-01-17T15:37:33.816Z,3.70
2023-01-17T15:40:20.213Z,3.60
2023-01-17T15:42:51.451Z,2.85
2023-01-17T15:45:25.000Z,2.42
2023-01-17T15:47:52.940Z,2.55
2023-01-17T15:50:20.723Z,2.78
2023-01-17T15:52:53.477Z,3.40
2023-01-17T15:55:30.097Z,3.10
2023-01-17T15:57:57.884Z,3.05
2023-01-17T16:00:33.024Z,3.92
2023-01-17T16:03:01.309Z,3.80
2023-01-17T16:05:34.173Z,4.05
2023-01-17T16:08:13.591Z,3.90
2023-01-17T16:10:51.813Z,3.63
2023-01-17T16:13:23.459Z,4.28
2023-01-17T16:15:51.808Z,4.32
2023-01-17T16:18:26.226Z,3.38
2023-01-17T16:21:01.838Z,3.08
2023-01-17T16:23:32.273Z,3.42
2023-01-17T16:26:00.477Z,3.47
2023-01-17T16:28:28.339Z,3.55
2023-01-17T16:30:56.426Z,3.85
2023-01-17T16:33:24.446Z,3.30
2023-01-17T16:35:54.946Z,3.13
2023-01-17T16:38:22.621Z,3.75
2023-01-17T16:40:52.477Z,3.90
2023-01-17T16:43:22.546Z,4.15
2023-01-17T16:45:54.331Z,3.97
2023-01-17T16:48:22.734Z,3.78
2023-01-17T16:50:53.341Z,3.40
2023-01-17T16:53:26.495Z,3.28
2023-01-17T16:55:57.771Z,3.33
2023-01-17T16:58:25.892Z,2.28
2023-01-17T17:00:58.171Z,2.97
2023-01-17T17:03:30.077Z,2.75
2023-01-17T17:06:01.941Z,2.92
2023-01-17T17:08:30.326Z,3.55
2023-01-17T17:11:16.398Z,4.45
2023-01-17T17:13:46.495Z,3.30
2023-01-17T17:16:19.242Z,3.75
2023-01-17T17:18:53.997Z,3.80
2023-01-17T17:21:21.991Z,3.28
2023-01-17T17:23:57.093Z,3.63
2023-01-17T17:26:31.290Z,3.97
2023-01-17T17:28:59.348Z,3.80
2023-01-17T17:31:27.646Z,4.00
2023-01-17T17:33:59.825Z,4.07
2023-01-17T17:36:27.642Z,3.95
2023-01-17T17:38:58.994Z,3.83
2023-01-17T17:41:29.659Z,3.28
2023-01-17T17:43:58.146Z,4.15
2023-01-17T17:46:27.496Z,4.95
2023-01-17T17:48:57.072Z,4.90
2023-01-17T17:51:26.107Z,3.70
2023-01-17T17:53:55.766Z,3.78
2023-01-17T17:56:24.198Z,3.83
2023-01-17T17:58:51.955Z,2.70
2023-01-17T18:01:20.070Z,3.08
2023-01-17T18:03:47.777Z,3.03
2023-01-17T18:06:17.695Z,2.65
2023-01-17T18:08:46.202Z,2.97
2023-01-17T18:11:18.781Z,2.65
2023-01-17T18:13:51.069Z,3.30
2023-01-17T18:16:26.855Z,2.70
2023-01-17T18:18:56.683Z,2.00
2023-01-17T18:21:40.395Z,2.22
2023-01-17T18:24:13.755Z,1.50
2023-01-17T18:26:42.457Z,1.92
2023-01-17T18:29:15.025Z,1.52
2023-01-17T18:31:44.483Z,1.60
2023-01-17T18:34:17.688Z,1.10
2023-01-17T18:36:45.602Z,1.20
2023-01-17T18:39:19.672Z,1.38
2023-01-17T18:41:52.075Z,1.10
2023-01-17T18:44:22.113Z,1.05
2023-01-17T18:46:51.952Z,1.15
2023-01-17T18:49:19.541Z,1.38
2023-01-17T18:51:51.663Z,1.30
2023-01-17T18:54:20.601Z,1.10
2023-01-17T18:56:48.905Z,0.95
2023-01-17T18:59:18.833Z,1.10
2023-01-17T19:01:47.100Z,1.15
2023-01-17T19:04:16.571Z,1.10
2023-01-17T19:06:47.067Z,1.20
2023-01-17T19:09:15.878Z,1.65
2023-01-17T19:11:45.312Z,1.35
2023-01-17T19:14:13.243Z,1.50
2023-01-17T19:16:42.443Z,1.40
2023-01-17T19:19:15.476Z,1.45
2023-01-17T19:21:44.016Z,1.47
2023-01-17T19:24:13.520Z,1.73
2023-01-17T19:26:42.024Z,1.98
2023-01-17T19:29:11.184Z,1.95
2023-01-17T19:31:50.193Z,2.00
2023-01-17T19:34:19.848Z,2.20
2023-01-17T19:36:47.638Z,2.70
2023-01-17T19:39:15.238Z,2.50
2023-01-17T19:41:44.857Z,2.75
2023-01-17T19:44:14.315Z,2.85
2023-01-17T19:46:42.083Z,3.08
2023-01-17T19:49:09.782Z,2.88
2023-01-17T19:51:39.558Z,2.63
2023-01-17T19:54:08.635Z,2.35
2023-01-17T19:56:36.178Z,2.60
2023-01-17T19:59:04.150Z,2.10
2023-01-17T20:01:34.012Z,1.90
2023-01-17T20:04:03.499Z,1.90
2023-01-17T20:06:36.737Z,1.90
2023-01-17T20:11:34.294Z,2.20
2023-01-17T20:14:02.216Z,1.80
2023-01-17T20:16:32.280Z,2.00
2023-01-17T20:19:03.014Z,1.83
2023-01-17T20:21:31.961Z,1.75
2023-01-17T20:24:00.790Z,1.73
2023-01-17T20:26:36.253Z,1.70
2023-01-17T20:29:24.017Z,1.77
2023-01-17T20:31:55.476Z,1.73
2023-01-17T20:34:26.127Z,1.42
2023-01-17T20:36:57.775Z,1.35
2023-01-17T20:39:25.450Z,2.38
2023-01-17T20:41:53.074Z,2.42
2023-01-17T20:44:20.738Z,2.50
2023-01-17T20:46:48.495Z,2.78
2023-01-17T20:49:19.448Z,2.88
2023-01-17T20:51:47.621Z,2.85
2023-01-17T20:54:19.697Z,2.63
2023-01-17T20:56:48.203Z,2.97
2023-01-17T20:59:18.545Z,2.90
2023-01-17T21:01:46.942Z,3.20
2023-01-17T21:04:15.086Z,2.63
2023-01-17T21:06:43.943Z,2.17
2023-01-17T21:09:14.220Z,2.63
2023-01-17T21:11:41.800Z,2.25
2023-01-17T21:14:09.474Z,2.50
2023-01-17T21:16:37.229Z,1.88
2023-01-17T21:19:05.549Z,2.03
2023-01-17T21:21:33.098Z,1.83
2023-01-17T21:24:00.677Z,1.55
2023-01-17T21:26:29.142Z,1.90
2023-01-17T21:28:58.461Z,1.92
2023-01-17T21:31:33.805Z,1.50
2023-01-17T21:34:03.982Z,0.98
2023-01-17T21:36:34.561Z,1.58
2023-01-17T21:39:07.514Z,2.40
2023-01-17T21:41:38.096Z,2.00
2023-01-17T21:44:13.305Z,2.17
2023-01-17T21:46:41.694Z,1.70
2023-01-17T21:49:13.559Z,2.00
2023-01-17T21:52:05.978Z,1.75
2023-01-17T21:55:06.050Z,1.75
2023-01-17T21:57:52.511Z,1.58
2023-01-17T22:00:20.066Z,2.20
2023-01-17T22:02:48.448Z,1.60
2023-01-17T22:05:19.903Z,1.52
2023-01-17T22:08:06.229Z,1.33
2023-01-17T22:10:44.790Z,1.52
2023-01-17T22:13:17.423Z,1.48
2023-01-17T22:15:45.697Z,1.55
2023-01-17T22:18:14.844Z,1.55
2023-01-17T22:20:43.197Z,1.52
2023-01-17T22:23:12.026Z,1.23
2023-01-17T22:25:39.600Z,1.48
2023-01-17T22:28:07.159Z,1.40
2023-01-17T22:30:34.750Z,1.70
2023-01-17T22:33:02.261Z,2.30
2023-01-17T22:35:29.808Z,1.73
2023-01-17T22:37:57.334Z,1.83
2023-01-17T22:40:26.427Z,1.83
2023-01-17T22:43:17.237Z,1.98
2023-01-17T22:45:46.332Z,2.17
2023-01-17T22:48:13.993Z,1.80
2023-01-17T22:50:41.455Z,2.00
2023-01-17T22:53:10.681Z,1.88
2023-01-17T22:55:38.191Z,1.83
2023-01-17T22:58:05.770Z,1.80
2023-01-17T23:00:33.306Z,1.60
2023-01-17T23:03:01.125Z,1.75
2023-01-17T23:05:28.785Z,1.90
2023-01-17T23:07:56.328Z,1.73
2023-01-17T23:10:44.076Z,1.80
2023-01-17T23:13:11.701Z,2.55
2023-01-17T23:15:57.586Z,2.78
2023-01-17T23:18:43.484Z,3.75
2023-01-17T23:21:11.065Z,5.55
2023-01-17T23:23:38.586Z,6.50
2023-01-17T23:26:06.249Z,8.98
2023-01-17T23:28:33.708Z,10.98
2023-01-17T23:31:06.756Z,10.15
2023-01-17T23:33:34.215Z,10.52
2023-01-17T23:36:01.852Z,9.45
2023-01-17T23:38:34.917Z,7.78
2023-01-17T23:41:23.134Z,5.82
2023-01-17T23:43:54.362Z,3.90
2023-01-17T23:46:22.938Z,3.75
2023-01-17T23:48:50.532Z,2.47
2023-01-17T23:51:18.251Z,1.65
2023-01-17T23:53:45.876Z,1.70
2023-01-17T23:56:21.170Z,1.70
2023-01-17T23:58:49.168Z,1.58
